• Join FlightAware (Why Join?)
  • Login
  • US Flag 
07:32AM EDT


 

Airport Tracker/Info


-or-


 

Live Flight TrackerFlight Track Log ✈ EJA396 ✈ 02-May-2013 ✈ KTEB - KBOS

Flight Track Log - Related Links

Times and Time Zones

All times are in EDT time to prevent confusion due to time zone crossing. See the EJA396 flight status page for this flight to view local times or setup timezone preferences in your user account.

Time Position Orientation Groundspeed Altitude Reporting Facility
EDT Latitude Longitude Course Direction KTS MPH feet Rate Location/Type
07:57AM 40.9000 -74.0333 54° Northeast 211 243 2,200  Level New York TRACON
07:58AM 40.9333 -74.1167 298° West 215 247 4,100 1,440 Climbing New York TRACON
08:00AM 41.0036 -74.1536 338° Northwest 196 226 6,000 1,080 Climbing Boston Center
08:01AM 41.0850 -74.1447 North 243 280 7,000 1,380 Climbing Boston Center
08:02AM 41.1417 -74.1103 25° Northeast 251 289 8,800 2,100 Climbing Boston Center
08:03AM 41.1936 -73.4452 54° Northeast  Level FlightAware Approximate
08:03AM 41.1744 -74.0036 68° East 242 278 11,200  Level Boston Center
08:04AM 41.1989 -73.9022 72° East 297 342 12,400 1,440 Climbing Boston Center
08:05AM 41.2294 -73.7758 72° East 326 375 14,100 1,740 Climbing Boston Center
08:06AM 41.2558 -73.6661 72° East 331 381 15,900 1,440 Climbing Boston Center
08:07AM 41.2886 -73.5286 72° East 340 391 17,000 540 Climbing Boston Center
08:08AM 41.3167 -73.4183 71° East 345 397 17,000  Level Boston Center
08:09AM 41.3511 -73.2781 72° East 345 397 17,000  Level Boston Center
08:10AM 41.3747 -73.1647 74° East 350 403 17,000  Level Boston Center
08:11AM 41.4047 -73.0239 74° East 355 409 17,000  Level Boston Center
08:12AM 41.4303 -72.9081 74° East 355 409 17,000  Level Boston Center
08:13AM 41.4706 -72.7475 71° East 360 414 17,000  Level Boston Center
08:14AM 41.5061 -72.5953 73° East 360 414 17,000  Level Boston Center
08:15AM 41.5356 -72.4817 71° East 360 414 17,000  Level Boston Center
08:16AM 41.5689 -72.3431 72° East 360 414 17,000  Level Boston Center
08:17AM 41.5936 -72.2403 72° East 360 414 17,000  Level Boston Center
08:18AM 41.6286 -72.0875 73° East 360 414 17,000  Level Boston Center
08:19AM 41.6594 -71.9594 72° East 360 414 17,000  Level Boston Center
08:20AM 41.6903 -71.8342 72° East 360 414 17,000  Level Boston Center
08:21AM 41.7186 -71.7058 73° East 360 414 17,000 -60 Level Boston Center
08:22AM 41.7489 -71.5803 72° East 360 414 16,900 -900 Descending Boston Center
08:23AM 41.7814 -71.4600 70° East 355 409 15,200 -1,500 Descending Boston Center
08:24AM 41.8075 -71.3483 73° East 337 388 14,000 -1,320 Descending Boston Center
08:25AM 41.8314 -71.2475 72° East 305 351 12,600 -1,500 Descending Boston Center
08:26AM 41.8553 -71.1467 72° East 288 331 11,100 -840 Descending Boston Center
08:27AM 41.8875 -71.0597 64° Northeast 270 311 11,000 -120 Descending Boston Center
08:28AM 41.9000 -71.0333 58° Northeast 266 306 11,000  Level KA90
08:29AM 41.9333 -70.9333 66° East 271 312 11,000  Level KA90
08:30AM 41.9667 -70.8500 62° Northeast 270 311 11,000  Level KA90
08:30AM 41.9906 -70.8172 46° Northeast 259 298 11,000 -720 Level Boston Center
08:31AM 42.0414 -70.7208 55° Northeast 259 298 9,900 -1,260 Descending Boston Center
08:32AM 42.0947 -70.6578 41° Northeast 259 298 8,500 -1,500 Descending Boston Center
08:33AM 42.1656 -70.6558 North 233 268 7,000 -1,500 Descending Boston Center
08:34AM 42.2361 -70.6453 North 238 274 5,500 -1,500 Descending Boston Center
08:35AM 42.3047 -70.6378 North 243 280 4,000 -1,260 Descending Boston Center
08:36AM 42.3619 -70.6894 326° Northwest 236 272 3,000 -720 Descending Boston Center
08:38AM 42.3833 -70.8667 279° West 221 254 1,800 -660 Descending KA90
08:39AM 42.3667 -70.9333 251° West 148 170 1,000 -720 Descending KA90
08:41AM 42.3667 -70.9667 270° West 110 127 300 -660 Descending KA90
08:43AM 42.3500 -71.0000 North  Level FlightAware Approximate